Flight Track Log - Related Links

Times and Time Zones

All times are in EDT time to prevent confusion due to time zone crossing. See the DAL3860 flight status page for this flight to view local times or setup timezone preferences in your user account.

Time Position Orientation Groundspeed Altitude Reporting Facility
EDT Latitude Longitude Course Direction KTS MPH feet Rate Location/Type
Fri 09:16:07 AM 41.3919 -81.8839 270° West 174 200 1,700  Level Cleveland Center
Fri 09:16:31 AM 41.3914 -81.9144 269° West 180 207 2,700 2,110 Climbing Cleveland Center
Fri 09:17:38 AM 41.3883 -81.9975 267° West 218 251 4,900 2,373 Climbing Cleveland Center
Fri 09:18:00 AM 41.3537 -82.2147 260° West  Level FlightAware Approximate
Fri 09:18:45 AM 41.3767 -82.0994 261° West 264 304 8,000  Level Cleveland Center
Fri 09:19:00 AM 41.3372 -82.3382 260° West  Level FlightAware Approximate
Fri 09:19:45 AM 41.3608 -82.1961 258° West 279 321 10,800  Level Cleveland Center
Fri 09:20:00 AM 41.3105 -82.4582 252° West  Level FlightAware Approximate
Fri 09:20:45 AM 41.3447 -82.3008 258° West 279 321 12,600  Level Cleveland Center
Fri 09:21:00 AM 41.3000 -82.5814 270° West  Level FlightAware Approximate
Fri 09:21:45 AM 41.3239 -82.4192 257° West 307 353 14,100  Level Cleveland Center
Fri 09:22:45 AM 41.3053 -82.5403 258° West 337 388 15,600 1,550 Climbing Cleveland Center
Fri 09:23:45 AM 41.2883 -82.6722 260° West 359 413 17,200 1,300 Climbing Cleveland Center
Fri 09:24:45 AM 41.2692 -82.8014 259° West 364 419 18,200 1,100 Climbing Cleveland Center
Fri 09:25:45 AM 41.2522 -82.9197 259° West 369 425 19,400 1,300 Climbing Cleveland Center
Fri 09:26:45 AM 41.2622 -83.0500 276° West 363 418 20,800 1,250 Climbing Cleveland Center
Fri 09:27:45 AM 41.3069 -83.1844 294° West 352 405 21,900 1,050 Climbing Cleveland Center
Fri 09:28:45 AM 41.3458 -83.3103 292° West 367 422 22,900 1,000 Climbing Cleveland Center
Fri 09:29:45 AM 41.3864 -83.4394 293° West 372 428 23,900 1,000 Climbing Cleveland Center
Fri 09:30:45 AM 41.4269 -83.5658 293° West 378 435 24,900 1,000 Climbing Cleveland Center
Fri 09:31:45 AM 41.4506 -83.7000 283° West 378 435 25,900 550 Climbing Cleveland Center
Fri 09:32:45 AM 41.4569 -83.8417 273° West 378 435 26,000 50 Climbing Cleveland Center
Fri 09:33:45 AM 41.4631 -83.9889 273° West 390 449 26,000 100 Level Cleveland Center
Fri 09:34:45 AM 41.4689 -84.1389 273° West 402 463 26,200 674 Climbing Cleveland Center
Fri 09:36:43 AM 41.4822 -84.4161 274° West 383 441 28,000 600 Climbing Chicago Center
Fri 09:37:45 AM 41.4867 -84.5586 272° West 383 441 28,000  Level Chicago Center
Fri 09:38:47 AM 41.4919 -84.7022 273° West 388 447 28,000  Level Chicago Center
Fri 09:39:49 AM 41.4956 -84.8442 272° West 386 444 28,000  Level Chicago Center
Fri 09:40:51 AM 41.4997 -84.9875 272° West 386 444 28,000  Level Chicago Center
Fri 09:41:53 AM 41.5039 -85.1317 272° West 388 447 28,000  Level Chicago Center
Fri 09:42:54 AM 41.5075 -85.2739 272° West 384 442 28,000  Level Chicago Center
Fri 09:43:56 AM 41.5108 -85.4200 272° West 384 442 28,000  Level Chicago Center
Fri 09:44:58 AM 41.5144 -85.5642 272° West 380 437 28,000  Level Chicago Center
Fri 09:46:00 AM 41.5258 -85.7317 275° West 377 434 28,000  Level Chicago Center
Fri 09:47:02 AM 41.5917 -85.8431 308° West 379 436 28,000 97 Level Chicago Center
Fri 09:48:04 AM 41.6614 -85.9506 311° West 382 440 28,200 634 Climbing Chicago Center
Fri 09:49:05 AM 41.7294 -86.0553 311° West 375 432 29,300 878 Climbing Chicago Center
Fri 09:50:07 AM 41.7958 -86.1556 312° West 361 415 30,000 339 Climbing Chicago Center
Fri 09:51:09 AM 41.8597 -86.2581 310° West 360 414 30,000  Level Chicago Center
Fri 09:52:11 AM 41.9267 -86.3631 311° West 369 425 30,000  Level Chicago Center
Fri 09:53:13 AM 42.0075 -86.4892 311° West 371 427 30,000  Level Chicago Center
Fri 09:54:15 AM 42.0744 -86.5942 311° West 369 425 30,000  Level Chicago Center
Fri 09:55:17 AM 42.1419 -86.7019 310° West 375 432 30,000  Level Chicago Center
Fri 09:56:19 AM 42.2097 -86.8089 311° West 378 435 30,000  Level Chicago Center
Fri 09:57:21 AM 42.2781 -86.9158 311° West 379 436 30,000  Level Chicago Center
Fri 09:58:23 AM 42.3464 -87.0247 310° West 380 437 30,000  Level Chicago Center
Fri 09:59:24 AM 42.4253 -87.1528 310° West 374 430 30,000  Level Chicago Center
Fri 10:00:26 AM 42.4942 -87.2603 311° West 378 435 30,000  Level Chicago Center
Fri 10:01:28 AM 42.5611 -87.3697 310° West 380 437 30,000  Level Chicago Center
Fri 10:02:30 AM 42.6333 -87.4858 310° West 373 429 30,000  Level Chicago Center
Fri 10:03:32 AM 42.6983 -87.5953 309° West 371 427 30,000  Level Chicago Center
Fri 10:04:34 AM 42.7656 -87.7028 310° West 372 428 30,000  Level Chicago Center
Fri 10:05:36 AM 42.8314 -87.8122 309° West 374 430 30,000  Level Chicago Center
Fri 10:07:47 AM 42.9758 -88.0494 310° West 373 429 30,000  Level Minneapolis Center
Fri 10:08:42 AM 43.0414 -88.1586 309° West 370 426 30,000  Level Chicago Center
Fri 10:09:44 AM 43.1072 -88.2681 310° West 373 429 30,000  Level Chicago Center
Fri 10:10:46 AM 43.1728 -88.3775 309° West 371 427 30,000  Level Chicago Center
Fri 10:11:48 AM 43.2356 -88.4842 309° West 360 414 30,000  Level Chicago Center
Fri 10:12:50 AM 43.2972 -88.5908 308° West 352 405 30,000  Level Chicago Center
Fri 10:13:53 AM 43.3706 -88.7175 309° West 356 410 30,000  Level Chicago Center
Fri 10:14:55 AM 43.4344 -88.8289 308° West 366 421 30,000  Level Chicago Center
Fri 10:15:57 AM 43.4994 -88.9394 309° West 369 425 30,000  Level Chicago Center
Fri 10:16:59 AM 43.5644 -89.0536 308° West 375 432 30,000  Level Chicago Center
Fri 10:18:01 AM 43.6300 -89.1681 308° West 378 435 30,000  Level Chicago Center
Fri 10:19:03 AM 43.6950 -89.2822 308° West 379 436 30,000  Level Chicago Center
Fri 10:20:09 AM 43.7700 -89.4156 308° West 377 434 30,000  Level Minneapolis Center
Fri 10:21:11 AM 43.8356 -89.5292 309° West 378 435 30,000  Level Minneapolis Center
Fri 10:22:13 AM 43.9003 -89.6453 308° West 379 436 30,000  Level Minneapolis Center
Fri 10:23:14 AM 43.9644 -89.7603 308° West 378 435 30,000  Level Minneapolis Center
Fri 10:24:16 AM 44.0394 -89.8953 308° West 378 435 30,000  Level Minneapolis Center
Fri 10:25:18 AM 44.1039 -90.0108 308° West 379 436 30,000  Level Minneapolis Center
Fri 10:26:20 AM 44.1683 -90.1269 308° West 379 436 30,000  Level Minneapolis Center
Fri 10:27:22 AM 44.2631 -90.2006 331° Northwest 394 453 30,000  Level Minneapolis Center
Fri 10:28:24 AM 44.3642 -90.2594 337° Northwest 395 455 30,000  Level Minneapolis Center
Fri 10:29:26 AM 44.4661 -90.3181 338° Northwest 395 455 30,000 -242 Level Minneapolis Center
Fri 10:30:28 AM 44.5814 -90.4028 332° Northwest 401 461 29,500 -823 Descending Minneapolis Center
Fri 10:31:30 AM 44.6714 -90.4886 326° Northwest 393 452 28,300 -726 Descending Minneapolis Center
Fri 10:32:32 AM 44.7192 -90.6078 299° West 387 445 28,000 -145 Descending Minneapolis Center
Fri 10:33:34 AM 44.7506 -90.7556 287° West 395 455 28,000 -823 Level Minneapolis Center
Fri 10:34:36 AM 44.7856 -90.9336 286° West 397 457 26,300 -1,645 Descending Minneapolis Center
Fri 10:35:38 AM 44.8144 -91.0803 286° West 394 453 24,600 -1,113 Descending Minneapolis Center
Fri 10:36:40 AM 44.8442 -91.2258 286° West 391 450 24,000 -339 Descending Minneapolis Center
Fri 10:37:42 AM 44.8772 -91.3942 286° West 394 453 23,900 -1,065 Descending Minneapolis Center
Fri 10:38:44 AM 44.9042 -91.5311 286° West 382 440 21,800 -2,129 Descending Minneapolis Center
Fri 10:39:46 AM 44.9344 -91.6803 286° West 365 420 19,500 -2,032 Descending Minneapolis Center
Fri 10:40:48 AM 44.9611 -91.8194 285° West 367 422 17,600 -1,887 Descending Minneapolis Center
Fri 10:41:50 AM 44.9889 -91.9556 286° West 362 417 15,600 -1,935 Descending Minneapolis Center
Fri 10:42:52 AM 45.0125 -92.0844 285° West 344 396 13,600 -1,935 Descending Minneapolis Center
Fri 10:43:54 AM 45.0350 -92.2111 284° West 336 387 11,600 -980 Descending Minneapolis Center
Fri 10:45:25 AM 45.0333 -92.4167 269° West 333 383 11,100 -290 Descending Minneapolis TRACON
Fri 10:45:58 AM 45.0181 -92.4911 254° West 334 384 11,000 -63 Descending Minneapolis Center
Fri 10:47:00 AM 44.9981 -92.6186 258° West 333 383 11,000 -48 Level Minneapolis Center
Fri 10:48:02 AM 44.9767 -92.7447 257° West 332 382 10,900 -435 Descending Minneapolis Center
Fri 10:49:04 AM 44.9597 -92.8519 257° West 274 315 10,100 -1,306 Descending Minneapolis Center
Fri 10:50:06 AM 44.9442 -92.9478 257° West 251 289 8,200 -1,016 Descending Minneapolis Center
Fri 10:51:08 AM 44.9208 -93.0628 254° West 263 303 8,000 -97 Descending Minneapolis Center
Fri 10:52:10 AM 44.8647 -93.1308 221° Southwest 270 311 8,000  Level Minneapolis Center
Fri 10:53:12 AM 44.8300 -93.2125 239° Southwest 257 296 8,000  Level Minneapolis Center
Fri 10:54:14 AM 44.8236 -93.3106 265° West 260 299 8,000 -532 Level Minneapolis Center
Fri 10:55:16 AM 44.8386 -93.4019 283° West 252 290 6,900 -1,452 Descending Minneapolis Center
Fri 10:56:18 AM 44.8772 -93.5050 298° West 249 287 5,000 -1,016 Descending Minneapolis Center
Fri 10:57:20 AM 44.9294 -93.4864 14° North 211 243 4,800 -484 Descending Minneapolis Center
Fri 10:58:22 AM 44.9450 -93.4156 73° East 207 238 4,000 -774 Descending Minneapolis Center

Login

Don't have an account? Register now (free) for customized features, flight alerts, and more!